sensor_id;sensor_type;location;lat;lon;timestamp;P1;durP1;ratioP1;P2;durP2;ratioP2
77978;SDS011;67169;50.268;8.694;2023-08-31T00:00:24;0.70;;;0.50;;
77978;SDS011;67169;50.268;8.694;2023-08-31T00:02:51;2.10;;;0.90;;
77978;SDS011;67169;50.268;8.694;2023-08-31T00:05:19;1.15;;;0.57;;
77978;SDS011;67169;50.268;8.694;2023-08-31T00:07:46;0.85;;;0.80;;
77978;SDS011;67169;50.268;8.694;2023-08-31T00:10:12;1.10;;;0.57;;
77978;SDS011;67169;50.268;8.694;2023-08-31T00:12:42;0.82;;;0.63;;
77978;SDS011;67169;50.268;8.694;2023-08-31T00:15:09;0.50;;;0.50;;
77978;SDS011;67169;50.268;8.694;2023-08-31T00:17:36;0.93;;;0.93;;
77978;SDS011;67169;50.268;8.694;2023-08-31T00:20:03;0.68;;;0.65;;
77978;SDS011;67169;50.268;8.694;2023-08-31T00:22:32;1.70;;;0.80;;
77978;SDS011;67169;50.268;8.694;2023-08-31T00:24:59;1.08;;;0.75;;
77978;SDS011;67169;50.268;8.694;2023-08-31T00:27:25;1.80;;;1.30;;
77978;SDS011;67169;50.268;8.694;2023-08-31T00:29:54;0.80;;;0.80;;
77978;SDS011;67169;50.268;8.694;2023-08-31T00:32:22;1.05;;;0.98;;
77978;SDS011;67169;50.268;8.694;2023-08-31T00:34:49;1.45;;;0.70;;
77978;SDS011;67169;50.268;8.694;2023-08-31T00:37:16;1.55;;;1.00;;
77978;SDS011;67169;50.268;8.694;2023-08-31T00:39:44;0.95;;;0.50;;
77978;SDS011;67169;50.268;8.694;2023-08-31T00:42:12;0.73;;;0.70;;
77978;SDS011;67169;50.268;8.694;2023-08-31T00:44:39;5.35;;;0.70;;
77978;SDS011;67169;50.268;8.694;2023-08-31T00:47:05;1.08;;;0.98;;
77978;SDS011;67169;50.268;8.694;2023-08-31T00:49:32;1.10;;;0.95;;
77978;SDS011;67169;50.268;8.694;2023-08-31T00:52:00;1.55;;;0.73;;
77978;SDS011;67169;50.268;8.694;2023-08-31T00:54:26;0.70;;;0.60;;
77978;SDS011;67169;50.268;8.694;2023-08-31T00:56:54;0.85;;;0.57;;
77978;SDS011;67169;50.268;8.694;2023-08-31T00:59:22;1.23;;;1.00;;
77978;SDS011;67169;50.268;8.694;2023-08-31T01:01:52;1.35;;;0.70;;
77978;SDS011;67169;50.268;8.694;2023-08-31T01:04:29;0.90;;;0.90;;
77978;SDS011;67169;50.268;8.694;2023-08-31T01:07:07;0.98;;;0.98;;
77978;SDS011;67169;50.268;8.694;2023-08-31T01:09:48;0.65;;;0.55;;
77978;SDS011;67169;50.268;8.694;2023-08-31T01:12:23;0.93;;;0.80;;
77978;SDS011;67169;50.268;8.694;2023-08-31T01:14:58;0.85;;;0.50;;
77978;SDS011;67169;50.268;8.694;2023-08-31T01:17:29;1.38;;;0.77;;
77978;SDS011;67169;50.268;8.694;2023-08-31T01:19:57;1.70;;;1.00;;
77978;SDS011;67169;50.268;8.694;2023-08-31T01:22:29;1.40;;;0.75;;
77978;SDS011;67169;50.268;8.694;2023-08-31T01:24:59;1.25;;;0.85;;
77978;SDS011;67169;50.268;8.694;2023-08-31T01:27:29;2.42;;;1.05;;
77978;SDS011;67169;50.268;8.694;2023-08-31T01:32:23;1.17;;;0.95;;
77978;SDS011;67169;50.268;8.694;2023-08-31T01:34:50;3.92;;;1.13;;
77978;SDS011;67169;50.268;8.694;2023-08-31T01:37:20;1.30;;;1.20;;
77978;SDS011;67169;50.268;8.694;2023-08-31T01:39:52;1.10;;;0.75;;
77978;SDS011;67169;50.268;8.694;2023-08-31T01:42:26;1.25;;;0.80;;
77978;SDS011;67169;50.268;8.694;2023-08-31T01:44:54;0.88;;;0.70;;
77978;SDS011;67169;50.268;8.694;2023-08-31T01:47:23;1.00;;;0.50;;
77978;SDS011;67169;50.268;8.694;2023-08-31T01:49:50;1.40;;;0.80;;
77978;SDS011;67169;50.268;8.694;2023-08-31T01:52:18;1.02;;;0.93;;
77978;SDS011;67169;50.268;8.694;2023-08-31T01:54:44;0.93;;;0.80;;
77978;SDS011;67169;50.268;8.694;2023-08-31T01:57:11;3.50;;;0.63;;
77978;SDS011;67169;50.268;8.694;2023-08-31T01:59:39;0.90;;;0.90;;
77978;SDS011;67169;50.268;8.694;2023-08-31T02:02:06;0.52;;;0.47;;
77978;SDS011;67169;50.268;8.694;2023-08-31T02:04:32;1.42;;;1.17;;
77978;SDS011;67169;50.268;8.694;2023-08-31T02:06:59;1.95;;;1.33;;
77978;SDS011;67169;50.268;8.694;2023-08-31T02:09:25;0.73;;;0.73;;
77978;SDS011;67169;50.268;8.694;2023-08-31T02:11:52;1.15;;;0.88;;
77978;SDS011;67169;50.268;8.694;2023-08-31T02:14:19;1.33;;;0.98;;
77978;SDS011;67169;50.268;8.694;2023-08-31T02:16:47;0.60;;;0.60;;
77978;SDS011;67169;50.268;8.694;2023-08-31T02:19:13;0.90;;;0.60;;
77978;SDS011;67169;50.268;8.694;2023-08-31T02:21:40;1.17;;;1.05;;
77978;SDS011;67169;50.268;8.694;2023-08-31T02:24:06;1.85;;;0.95;;
77978;SDS011;67169;50.268;8.694;2023-08-31T02:26:34;0.57;;;0.55;;
77978;SDS011;67169;50.268;8.694;2023-08-31T02:29:02;0.45;;;0.45;;
77978;SDS011;67169;50.268;8.694;2023-08-31T02:31:29;0.93;;;0.93;;
77978;SDS011;67169;50.268;8.694;2023-08-31T02:33:57;1.65;;;1.42;;
77978;SDS011;67169;50.268;8.694;2023-08-31T02:36:23;1.08;;;1.00;;
77978;SDS011;67169;50.268;8.694;2023-08-31T02:38:50;2.40;;;1.00;;
77978;SDS011;67169;50.268;8.694;2023-08-31T02:41:15;1.08;;;1.05;;
77978;SDS011;67169;50.268;8.694;2023-08-31T02:43:42;0.70;;;0.43;;
77978;SDS011;67169;50.268;8.694;2023-08-31T02:46:09;0.98;;;0.65;;
77978;SDS011;67169;50.268;8.694;2023-08-31T02:48:35;0.63;;;0.35;;
77978;SDS011;67169;50.268;8.694;2023-08-31T02:51:03;1.20;;;0.93;;
77978;SDS011;67169;50.268;8.694;2023-08-31T02:53:30;2.40;;;1.33;;
77978;SDS011;67169;50.268;8.694;2023-08-31T02:55:56;1.75;;;0.73;;
77978;SDS011;67169;50.268;8.694;2023-08-31T02:58:23;0.73;;;0.70;;
77978;SDS011;67169;50.268;8.694;2023-08-31T03:00:50;1.42;;;1.00;;
77978;SDS011;67169;50.268;8.694;2023-08-31T03:03:17;1.23;;;0.90;;
77978;SDS011;67169;50.268;8.694;2023-08-31T03:05:44;1.40;;;1.05;;
77978;SDS011;67169;50.268;8.694;2023-08-31T03:08:12;1.65;;;0.90;;
77978;SDS011;67169;50.268;8.694;2023-08-31T03:10:38;1.63;;;1.20;;
77978;SDS011;67169;50.268;8.694;2023-08-31T03:15:33;1.48;;;0.88;;
77978;SDS011;67169;50.268;8.694;2023-08-31T03:18:00;1.48;;;0.85;;
77978;SDS011;67169;50.268;8.694;2023-08-31T03:20:26;2.10;;;1.20;;
77978;SDS011;67169;50.268;8.694;2023-08-31T03:22:53;2.05;;;1.17;;
77978;SDS011;67169;50.268;8.694;2023-08-31T03:25:21;1.33;;;1.00;;
77978;SDS011;67169;50.268;8.694;2023-08-31T03:27:47;2.10;;;1.00;;
77978;SDS011;67169;50.268;8.694;2023-08-31T03:30:14;1.83;;;1.15;;
77978;SDS011;67169;50.268;8.694;2023-08-31T03:32:40;1.83;;;1.35;;
77978;SDS011;67169;50.268;8.694;2023-08-31T03:35:07;1.52;;;1.10;;
77978;SDS011;67169;50.268;8.694;2023-08-31T03:37:34;2.13;;;1.58;;
77978;SDS011;67169;50.268;8.694;2023-08-31T03:40:01;1.40;;;1.30;;
77978;SDS011;67169;50.268;8.694;2023-08-31T03:44:57;1.38;;;1.10;;
77978;SDS011;67169;50.268;8.694;2023-08-31T03:47:24;1.05;;;0.77;;
77978;SDS011;67169;50.268;8.694;2023-08-31T03:49:50;1.50;;;1.10;;
77978;SDS011;67169;50.268;8.694;2023-08-31T03:52:17;2.78;;;1.40;;
77978;SDS011;67169;50.268;8.694;2023-08-31T03:54:43;1.23;;;1.13;;
77978;SDS011;67169;50.268;8.694;2023-08-31T03:57:10;2.10;;;1.02;;
77978;SDS011;67169;50.268;8.694;2023-08-31T03:59:38;1.65;;;1.50;;
77978;SDS011;67169;50.268;8.694;2023-08-31T04:02:04;1.50;;;0.98;;
77978;SDS011;67169;50.268;8.694;2023-08-31T04:04:31;2.33;;;1.33;;
77978;SDS011;67169;50.268;8.694;2023-08-31T04:06:59;2.08;;;1.17;;
77978;SDS011;67169;50.268;8.694;2023-08-31T04:09:26;3.85;;;1.40;;
77978;SDS011;67169;50.268;8.694;2023-08-31T04:11:52;1.27;;;1.17;;
77978;SDS011;67169;50.268;8.694;2023-08-31T04:14:19;1.75;;;1.38;;
77978;SDS011;67169;50.268;8.694;2023-08-31T04:16:47;2.42;;;1.55;;
77978;SDS011;67169;50.268;8.694;2023-08-31T04:19:15;1.98;;;1.55;;
77978;SDS011;67169;50.268;8.694;2023-08-31T04:21:42;1.92;;;1.38;;
77978;SDS011;67169;50.268;8.694;2023-08-31T04:24:08;3.78;;;1.42;;
77978;SDS011;67169;50.268;8.694;2023-08-31T04:26:35;1.73;;;1.63;;
77978;SDS011;67169;50.268;8.694;2023-08-31T04:29:02;2.30;;;1.38;;
77978;SDS011;67169;50.268;8.694;2023-08-31T04:31:30;1.70;;;1.30;;
77978;SDS011;67169;50.268;8.694;2023-08-31T04:33:58;1.73;;;1.27;;
77978;SDS011;67169;50.268;8.694;2023-08-31T04:36:25;1.25;;;1.15;;
77978;SDS011;67169;50.268;8.694;2023-08-31T04:38:51;1.35;;;1.02;;
77978;SDS011;67169;50.268;8.694;2023-08-31T04:41:18;2.45;;;1.88;;
77978;SDS011;67169;50.268;8.694;2023-08-31T04:43:45;1.70;;;1.60;;
77978;SDS011;67169;50.268;8.694;2023-08-31T04:48:39;2.72;;;1.17;;
77978;SDS011;67169;50.268;8.694;2023-08-31T04:51:09;2.25;;;1.92;;
77978;SDS011;67169;50.268;8.694;2023-08-31T04:53:52;2.00;;;0.88;;
77978;SDS011;67169;50.268;8.694;2023-08-31T04:56:19;1.35;;;1.23;;
77978;SDS011;67169;50.268;8.694;2023-08-31T04:58:45;1.50;;;1.30;;
77978;SDS011;67169;50.268;8.694;2023-08-31T05:01:12;2.22;;;1.52;;
77978;SDS011;67169;50.268;8.694;2023-08-31T05:03:39;1.30;;;1.15;;
77978;SDS011;67169;50.268;8.694;2023-08-31T05:06:07;2.30;;;1.73;;
77978;SDS011;67169;50.268;8.694;2023-08-31T05:08:34;1.58;;;1.33;;
77978;SDS011;67169;50.268;8.694;2023-08-31T05:11:00;3.25;;;2.00;;
77978;SDS011;67169;50.268;8.694;2023-08-31T05:13:27;2.85;;;2.33;;
77978;SDS011;67169;50.268;8.694;2023-08-31T05:15:54;1.80;;;1.48;;
77978;SDS011;67169;50.268;8.694;2023-08-31T05:18:20;2.53;;;1.52;;
77978;SDS011;67169;50.268;8.694;2023-08-31T05:20:47;3.22;;;1.95;;
77978;SDS011;67169;50.268;8.694;2023-08-31T05:23:15;3.65;;;2.35;;
77978;SDS011;67169;50.268;8.694;2023-08-31T05:25:41;2.20;;;1.38;;
77978;SDS011;67169;50.268;8.694;2023-08-31T05:28:08;2.10;;;1.50;;
77978;SDS011;67169;50.268;8.694;2023-08-31T05:30:35;1.75;;;1.45;;
77978;SDS011;67169;50.268;8.694;2023-08-31T05:33:01;3.83;;;1.52;;
77978;SDS011;67169;50.268;8.694;2023-08-31T05:35:29;2.45;;;1.65;;
77978;SDS011;67169;50.268;8.694;2023-08-31T05:37:56;1.83;;;1.45;;
77978;SDS011;67169;50.268;8.694;2023-08-31T05:40:24;2.45;;;1.75;;
77978;SDS011;67169;50.268;8.694;2023-08-31T05:42:50;1.70;;;1.60;;
77978;SDS011;67169;50.268;8.694;2023-08-31T05:45:17;3.60;;;1.95;;
77978;SDS011;67169;50.268;8.694;2023-08-31T05:47:44;3.60;;;2.00;;
77978;SDS011;67169;50.268;8.694;2023-08-31T05:50:10;1.15;;;1.02;;
77978;SDS011;67169;50.268;8.694;2023-08-31T05:52:37;3.20;;;2.03;;
77978;SDS011;67169;50.268;8.694;2023-08-31T05:55:06;2.38;;;1.75;;
77978;SDS011;67169;50.268;8.694;2023-08-31T05:57:34;1.50;;;1.40;;
77978;SDS011;67169;50.268;8.694;2023-08-31T06:00:02;3.38;;;1.15;;
77978;SDS011;67169;50.268;8.694;2023-08-31T06:02:32;1.20;;;1.00;;
77978;SDS011;67169;50.268;8.694;2023-08-31T06:04:58;2.00;;;1.30;;
77978;SDS011;67169;50.268;8.694;2023-08-31T06:07:25;2.08;;;1.65;;
77978;SDS011;67169;50.268;8.694;2023-08-31T06:09:54;2.72;;;1.85;;
77978;SDS011;67169;50.268;8.694;2023-08-31T06:12:21;1.73;;;0.95;;
77978;SDS011;67169;50.268;8.694;2023-08-31T06:14:49;2.85;;;1.33;;
77978;SDS011;67169;50.268;8.694;2023-08-31T06:17:15;4.57;;;1.13;;
77978;SDS011;67169;50.268;8.694;2023-08-31T06:19:42;1.70;;;1.52;;
77978;SDS011;67169;50.268;8.694;2023-08-31T06:22:09;2.50;;;1.15;;
77978;SDS011;67169;50.268;8.694;2023-08-31T06:24:36;1.42;;;1.33;;
77978;SDS011;67169;50.268;8.694;2023-08-31T06:27:03;0.98;;;0.98;;
77978;SDS011;67169;50.268;8.694;2023-08-31T06:29:29;2.22;;;1.73;;
77978;SDS011;67169;50.268;8.694;2023-08-31T06:31:57;0.68;;;0.60;;
77978;SDS011;67169;50.268;8.694;2023-08-31T06:34:24;5.00;;;1.33;;
77978;SDS011;67169;50.268;8.694;2023-08-31T06:36:50;1.20;;;1.10;;
77978;SDS011;67169;50.268;8.694;2023-08-31T06:39:17;1.58;;;1.13;;
77978;SDS011;67169;50.268;8.694;2023-08-31T06:41:44;1.23;;;1.00;;
77978;SDS011;67169;50.268;8.694;2023-08-31T06:44:10;1.40;;;1.00;;
77978;SDS011;67169;50.268;8.694;2023-08-31T06:46:37;1.25;;;0.93;;
77978;SDS011;67169;50.268;8.694;2023-08-31T06:49:05;1.38;;;1.27;;
77978;SDS011;67169;50.268;8.694;2023-08-31T06:51:31;1.25;;;1.15;;
77978;SDS011;67169;50.268;8.694;2023-08-31T06:53:58;0.77;;;0.77;;
77978;SDS011;67169;50.268;8.694;2023-08-31T06:56:31;0.63;;;0.63;;
77978;SDS011;67169;50.268;8.694;2023-08-31T06:58:57;1.45;;;0.60;;
77978;SDS011;67169;50.268;8.694;2023-08-31T07:01:24;1.40;;;1.20;;
77978;SDS011;67169;50.268;8.694;2023-08-31T07:03:52;1.38;;;1.25;;
77978;SDS011;67169;50.268;8.694;2023-08-31T07:06:20;1.73;;;1.58;;
77978;SDS011;67169;50.268;8.694;2023-08-31T07:08:49;2.92;;;0.90;;
77978;SDS011;67169;50.268;8.694;2023-08-31T07:11:16;2.47;;;0.93;;
77978;SDS011;67169;50.268;8.694;2023-08-31T07:16:10;2.00;;;0.70;;
77978;SDS011;67169;50.268;8.694;2023-08-31T07:18:36;1.05;;;0.75;;
77978;SDS011;67169;50.268;8.694;2023-08-31T07:21:03;1.90;;;1.23;;
77978;SDS011;67169;50.268;8.694;2023-08-31T07:25:58;2.10;;;1.30;;
77978;SDS011;67169;50.268;8.694;2023-08-31T07:28:26;1.13;;;1.02;;
77978;SDS011;67169;50.268;8.694;2023-08-31T07:31:00;2.00;;;0.82;;
77978;SDS011;67169;50.268;8.694;2023-08-31T07:33:28;1.20;;;1.10;;
77978;SDS011;67169;50.268;8.694;2023-08-31T07:35:55;1.25;;;1.10;;
77978;SDS011;67169;50.268;8.694;2023-08-31T07:38:23;0.85;;;0.50;;
77978;SDS011;67169;50.268;8.694;2023-08-31T07:40:52;0.95;;;0.85;;
77978;SDS011;67169;50.268;8.694;2023-08-31T07:43:18;1.13;;;0.93;;
77978;SDS011;67169;50.268;8.694;2023-08-31T07:45:45;1.00;;;0.90;;
77978;SDS011;67169;50.268;8.694;2023-08-31T07:48:12;1.00;;;0.88;;
77978;SDS011;67169;50.268;8.694;2023-08-31T07:50:40;2.45;;;1.00;;
77978;SDS011;67169;50.268;8.694;2023-08-31T07:53:06;1.05;;;0.60;;
77978;SDS011;67169;50.268;8.694;2023-08-31T07:55:33;0.40;;;0.40;;
77978;SDS011;67169;50.268;8.694;2023-08-31T07:58:01;0.77;;;0.68;;
77978;SDS011;67169;50.268;8.694;2023-08-31T08:00:28;0.77;;;0.73;;
77978;SDS011;67169;50.268;8.694;2023-08-31T08:02:55;0.70;;;0.55;;
77978;SDS011;67169;50.268;8.694;2023-08-31T08:05:21;0.82;;;0.52;;
77978;SDS011;67169;50.268;8.694;2023-08-31T08:07:48;0.93;;;0.90;;
77978;SDS011;67169;50.268;8.694;2023-08-31T08:10:14;0.90;;;0.63;;
77978;SDS011;67169;50.268;8.694;2023-08-31T08:12:41;0.88;;;0.57;;
77978;SDS011;67169;50.268;8.694;2023-08-31T08:15:12;0.60;;;0.60;;
77978;SDS011;67169;50.268;8.694;2023-08-31T08:17:39;0.60;;;0.52;;
77978;SDS011;67169;50.268;8.694;2023-08-31T08:20:08;0.98;;;0.50;;
77978;SDS011;67169;50.268;8.694;2023-08-31T08:22:35;0.22;;;0.22;;
77978;SDS011;67169;50.268;8.694;2023-08-31T08:25:02;0.32;;;0.30;;
77978;SDS011;67169;50.268;8.694;2023-08-31T08:27:29;0.20;;;0.20;;
77978;SDS011;67169;50.268;8.694;2023-08-31T08:29:56;0.50;;;0.50;;
77978;SDS011;67169;50.268;8.694;2023-08-31T08:32:24;1.75;;;0.65;;
77978;SDS011;67169;50.268;8.694;2023-08-31T08:34:51;0.52;;;0.40;;
77978;SDS011;67169;50.268;8.694;2023-08-31T08:37:18;0.52;;;0.22;;
77978;SDS011;67169;50.268;8.694;2023-08-31T08:39:47;0.40;;;0.40;;
77978;SDS011;67169;50.268;8.694;2023-08-31T08:42:14;4.30;;;0.82;;
77978;SDS011;67169;50.268;8.694;2023-08-31T08:44:44;0.38;;;0.38;;
77978;SDS011;67169;50.268;8.694;2023-08-31T08:47:11;7.50;;;0.60;;
77978;SDS011;67169;50.268;8.694;2023-08-31T08:49:39;0.25;;;0.25;;
77978;SDS011;67169;50.268;8.694;2023-08-31T08:52:06;0.52;;;0.47;;
77978;SDS011;67169;50.268;8.694;2023-08-31T08:54:33;0.20;;;0.20;;
77978;SDS011;67169;50.268;8.694;2023-08-31T08:57:01;0.20;;;0.20;;
77978;SDS011;67169;50.268;8.694;2023-08-31T09:01:56;0.43;;;0.30;;
77978;SDS011;67169;50.268;8.694;2023-08-31T09:04:22;1.60;;;0.77;;
77978;SDS011;67169;50.268;8.694;2023-08-31T09:06:51;2.55;;;0.30;;
77978;SDS011;67169;50.268;8.694;2023-08-31T09:09:18;0.47;;;0.25;;
77978;SDS011;67169;50.268;8.694;2023-08-31T09:11:45;0.35;;;0.30;;
77978;SDS011;67169;50.268;8.694;2023-08-31T09:14:15;0.10;;;0.10;;
77978;SDS011;67169;50.268;8.694;2023-08-31T09:16:44;0.47;;;0.30;;
77978;SDS011;67169;50.268;8.694;2023-08-31T09:19:17;1.95;;;0.30;;
77978;SDS011;67169;50.268;8.694;2023-08-31T09:21:46;0.20;;;0.20;;
77978;SDS011;67169;50.268;8.694;2023-08-31T09:24:15;0.13;;;0.13;;
77978;SDS011;67169;50.268;8.694;2023-08-31T09:26:43;0.45;;;0.30;;
77978;SDS011;67169;50.268;8.694;2023-08-31T09:29:11;1.13;;;0.80;;
77978;SDS011;67169;50.268;8.694;2023-08-31T09:31:38;1.00;;;0.60;;
77978;SDS011;67169;50.268;8.694;2023-08-31T09:34:08;0.20;;;0.10;;
77978;SDS011;67169;50.268;8.694;2023-08-31T09:36:34;0.30;;;0.30;;
77978;SDS011;67169;50.268;8.694;2023-08-31T09:39:02;0.40;;;0.30;;
77978;SDS011;67169;50.268;8.694;2023-08-31T09:41:31;0.57;;;0.30;;
77978;SDS011;67169;50.268;8.694;2023-08-31T09:43:59;0.30;;;0.30;;
77978;SDS011;67169;50.268;8.694;2023-08-31T09:46:41;0.70;;;0.40;;
77978;SDS011;67169;50.268;8.694;2023-08-31T09:49:08;0.30;;;0.20;;
77978;SDS011;67169;50.268;8.694;2023-08-31T09:51:35;0.17;;;0.17;;
77978;SDS011;67169;50.268;8.694;2023-08-31T09:54:05;0.45;;;0.45;;
77978;SDS011;67169;50.268;8.694;2023-08-31T09:56:36;0.30;;;0.30;;
77978;SDS011;67169;50.268;8.694;2023-08-31T09:59:03;0.40;;;0.40;;
77978;SDS011;67169;50.268;8.694;2023-08-31T10:01:31;1.08;;;0.40;;
77978;SDS011;67169;50.268;8.694;2023-08-31T10:03:58;0.60;;;0.45;;
77978;SDS011;67169;50.268;8.694;2023-08-31T10:08:53;0.50;;;0.40;;
77978;SDS011;67169;50.268;8.694;2023-08-31T10:11:20;1.33;;;0.40;;
77978;SDS011;67169;50.268;8.694;2023-08-31T10:13:50;0.65;;;0.60;;
77978;SDS011;67169;50.268;8.694;2023-08-31T10:16:18;0.80;;;0.47;;
77978;SDS011;67169;50.268;8.694;2023-08-31T10:18:46;1.27;;;0.68;;
77978;SDS011;67169;50.268;8.694;2023-08-31T10:21:16;0.45;;;0.40;;
77978;SDS011;67169;50.268;8.694;2023-08-31T10:23:44;0.52;;;0.52;;
77978;SDS011;67169;50.268;8.694;2023-08-31T10:26:10;0.60;;;0.30;;
77978;SDS011;67169;50.268;8.694;2023-08-31T10:28:41;1.08;;;0.40;;
77978;SDS011;67169;50.268;8.694;2023-08-31T10:31:10;0.30;;;0.25;;
77978;SDS011;67169;50.268;8.694;2023-08-31T10:33:42;0.30;;;0.30;;
77978;SDS011;67169;50.268;8.694;2023-08-31T10:36:09;0.75;;;0.65;;
77978;SDS011;67169;50.268;8.694;2023-08-31T10:41:17;0.68;;;0.47;;
77978;SDS011;67169;50.268;8.694;2023-08-31T10:43:46;0.40;;;0.38;;
77978;SDS011;67169;50.268;8.694;2023-08-31T10:46:28;0.63;;;0.40;;
77978;SDS011;67169;50.268;8.694;2023-08-31T10:48:56;0.82;;;0.47;;
77978;SDS011;67169;50.268;8.694;2023-08-31T10:51:25;2.08;;;0.80;;
77978;SDS011;67169;50.268;8.694;2023-08-31T10:54:03;2.10;;;0.50;;
77978;SDS011;67169;50.268;8.694;2023-08-31T10:56:30;0.95;;;0.60;;
77978;SDS011;67169;50.268;8.694;2023-08-31T10:58:58;0.28;;;0.28;;
77978;SDS011;67169;50.268;8.694;2023-08-31T11:04:21;1.90;;;0.40;;
77978;SDS011;67169;50.268;8.694;2023-08-31T11:06:48;1.75;;;0.30;;
77978;SDS011;67169;50.268;8.694;2023-08-31T11:09:18;0.65;;;0.32;;
77978;SDS011;67169;50.268;8.694;2023-08-31T11:11:45;1.05;;;0.70;;
77978;SDS011;67169;50.268;8.694;2023-08-31T11:14:12;0.22;;;0.22;;
77978;SDS011;67169;50.268;8.694;2023-08-31T11:16:38;0.50;;;0.50;;
77978;SDS011;67169;50.268;8.694;2023-08-31T11:19:05;1.45;;;0.40;;
77978;SDS011;67169;50.268;8.694;2023-08-31T11:21:33;1.10;;;0.45;;
77978;SDS011;67169;50.268;8.694;2023-08-31T11:24:02;1.00;;;0.70;;
77978;SDS011;67169;50.268;8.694;2023-08-31T11:26:29;0.30;;;0.22;;
77978;SDS011;67169;50.268;8.694;2023-08-31T11:28:58;0.80;;;0.43;;
77978;SDS011;67169;50.268;8.694;2023-08-31T11:31:25;2.15;;;0.40;;
77978;SDS011;67169;50.268;8.694;2023-08-31T11:33:53;1.60;;;0.50;;
77978;SDS011;67169;50.268;8.694;2023-08-31T11:36:21;0.50;;;0.47;;
77978;SDS011;67169;50.268;8.694;2023-08-31T11:38:49;0.68;;;0.45;;
77978;SDS011;67169;50.268;8.694;2023-08-31T11:41:16;0.52;;;0.50;;
77978;SDS011;67169;50.268;8.694;2023-08-31T11:43:43;0.05;;;0.05;;
77978;SDS011;67169;50.268;8.694;2023-08-31T11:46:10;0.50;;;0.28;;
77978;SDS011;67169;50.268;8.694;2023-08-31T11:48:37;0.65;;;0.30;;
77978;SDS011;67169;50.268;8.694;2023-08-31T11:51:05;0.38;;;0.32;;
77978;SDS011;67169;50.268;8.694;2023-08-31T11:53:32;0.30;;;0.30;;
77978;SDS011;67169;50.268;8.694;2023-08-31T11:56:02;0.30;;;0.30;;
77978;SDS011;67169;50.268;8.694;2023-08-31T11:58:29;0.40;;;0.40;;
77978;SDS011;67169;50.268;8.694;2023-08-31T12:00:56;0.35;;;0.25;;
77978;SDS011;67169;50.268;8.694;2023-08-31T12:03:24;0.45;;;0.45;;
77978;SDS011;67169;50.268;8.694;2023-08-31T12:05:51;0.85;;;0.40;;
77978;SDS011;67169;50.268;8.694;2023-08-31T12:08:25;0.55;;;0.32;;
77978;SDS011;67169;50.268;8.694;2023-08-31T12:10:52;0.50;;;0.30;;
77978;SDS011;67169;50.268;8.694;2023-08-31T12:13:25;0.35;;;0.20;;
77978;SDS011;67169;50.268;8.694;2023-08-31T12:15:52;1.10;;;0.70;;
77978;SDS011;67169;50.268;8.694;2023-08-31T12:18:19;0.30;;;0.30;;
77978;SDS011;67169;50.268;8.694;2023-08-31T12:20:46;0.63;;;0.30;;
77978;SDS011;67169;50.268;8.694;2023-08-31T12:23:16;0.28;;;0.20;;
77978;SDS011;67169;50.268;8.694;2023-08-31T12:25:48;0.38;;;0.38;;
77978;SDS011;67169;50.268;8.694;2023-08-31T12:28:14;0.45;;;0.10;;
77978;SDS011;67169;50.268;8.694;2023-08-31T12:30:48;0.77;;;0.40;;
77978;SDS011;67169;50.268;8.694;2023-08-31T12:33:15;0.30;;;0.30;;
77978;SDS011;67169;50.268;8.694;2023-08-31T12:35:42;2.00;;;0.32;;
77978;SDS011;67169;50.268;8.694;2023-08-31T12:38:09;0.68;;;0.30;;
77978;SDS011;67169;50.268;8.694;2023-08-31T12:40:36;0.17;;;0.17;;
77978;SDS011;67169;50.268;8.694;2023-08-31T12:43:03;0.55;;;0.30;;
77978;SDS011;67169;50.268;8.694;2023-08-31T12:45:30;0.68;;;0.30;;
77978;SDS011;67169;50.268;8.694;2023-08-31T12:47:58;1.05;;;0.50;;
77978;SDS011;67169;50.268;8.694;2023-08-31T12:50:25;0.80;;;0.20;;
77978;SDS011;67169;50.268;8.694;2023-08-31T12:52:52;0.40;;;0.30;;
77978;SDS011;67169;50.268;8.694;2023-08-31T12:55:18;0.82;;;0.45;;
77978;SDS011;67169;50.268;8.694;2023-08-31T12:57:45;0.70;;;0.32;;
77978;SDS011;67169;50.268;8.694;2023-08-31T13:00:13;0.32;;;0.32;;
77978;SDS011;67169;50.268;8.694;2023-08-31T13:02:42;1.80;;;0.60;;
77978;SDS011;67169;50.268;8.694;2023-08-31T13:05:11;0.52;;;0.30;;
77978;SDS011;67169;50.268;8.694;2023-08-31T13:07:38;0.82;;;0.30;;
77978;SDS011;67169;50.268;8.694;2023-08-31T13:10:05;1.10;;;0.35;;
77978;SDS011;67169;50.268;8.694;2023-08-31T13:14:59;0.38;;;0.30;;
77978;SDS011;67169;50.268;8.694;2023-08-31T13:17:27;1.88;;;0.32;;
77978;SDS011;67169;50.268;8.694;2023-08-31T13:19:54;0.32;;;0.30;;
77978;SDS011;67169;50.268;8.694;2023-08-31T13:22:22;1.50;;;0.40;;
77978;SDS011;67169;50.268;8.694;2023-08-31T13:24:49;0.30;;;0.30;;
77978;SDS011;67169;50.268;8.694;2023-08-31T13:27:15;0.70;;;0.65;;
77978;SDS011;67169;50.268;8.694;2023-08-31T13:29:42;0.85;;;0.35;;
77978;SDS011;67169;50.268;8.694;2023-08-31T13:32:09;0.63;;;0.40;;
77978;SDS011;67169;50.268;8.694;2023-08-31T13:34:36;0.20;;;0.20;;
77978;SDS011;67169;50.268;8.694;2023-08-31T13:37:03;0.57;;;0.57;;
77978;SDS011;67169;50.268;8.694;2023-08-31T13:42:00;0.38;;;0.35;;
77978;SDS011;67169;50.268;8.694;2023-08-31T13:44:28;0.25;;;0.17;;
77978;SDS011;67169;50.268;8.694;2023-08-31T13:46:55;0.30;;;0.30;;
77978;SDS011;67169;50.268;8.694;2023-08-31T13:49:22;1.17;;;0.35;;
77978;SDS011;67169;50.268;8.694;2023-08-31T13:51:48;3.65;;;0.50;;
77978;SDS011;67169;50.268;8.694;2023-08-31T13:54:15;0.30;;;0.30;;
77978;SDS011;67169;50.268;8.694;2023-08-31T13:56:45;1.75;;;0.10;;
77978;SDS011;67169;50.268;8.694;2023-08-31T13:59:12;0.73;;;0.45;;
77978;SDS011;67169;50.268;8.694;2023-08-31T14:01:38;0.20;;;0.20;;
77978;SDS011;67169;50.268;8.694;2023-08-31T14:04:05;1.55;;;0.60;;
77978;SDS011;67169;50.268;8.694;2023-08-31T14:06:32;0.63;;;0.47;;
77978;SDS011;67169;50.268;8.694;2023-08-31T14:08:58;0.77;;;0.43;;
77978;SDS011;67169;50.268;8.694;2023-08-31T14:11:26;0.80;;;0.30;;
77978;SDS011;67169;50.268;8.694;2023-08-31T14:14:00;0.35;;;0.28;;
77978;SDS011;67169;50.268;8.694;2023-08-31T14:16:29;0.65;;;0.30;;
77978;SDS011;67169;50.268;8.694;2023-08-31T14:18:55;0.65;;;0.47;;
77978;SDS011;67169;50.268;8.694;2023-08-31T14:21:22;0.50;;;0.47;;
77978;SDS011;67169;50.268;8.694;2023-08-31T14:23:48;0.55;;;0.43;;
77978;SDS011;67169;50.268;8.694;2023-08-31T14:26:15;0.60;;;0.60;;
77978;SDS011;67169;50.268;8.694;2023-08-31T14:28:42;0.50;;;0.40;;
77978;SDS011;67169;50.268;8.694;2023-08-31T14:31:11;0.55;;;0.40;;
77978;SDS011;67169;50.268;8.694;2023-08-31T14:33:38;0.40;;;0.32;;
77978;SDS011;67169;50.268;8.694;2023-08-31T14:36:04;0.68;;;0.40;;
77978;SDS011;67169;50.268;8.694;2023-08-31T14:38:31;0.82;;;0.40;;
77978;SDS011;67169;50.268;8.694;2023-08-31T14:40:58;0.63;;;0.40;;
77978;SDS011;67169;50.268;8.694;2023-08-31T14:43:25;0.90;;;0.70;;
77978;SDS011;67169;50.268;8.694;2023-08-31T14:45:51;0.38;;;0.30;;
77978;SDS011;67169;50.268;8.694;2023-08-31T14:48:19;3.65;;;0.68;;
77978;SDS011;67169;50.268;8.694;2023-08-31T14:50:46;2.17;;;0.38;;
77978;SDS011;67169;50.268;8.694;2023-08-31T14:53:12;0.75;;;0.32;;
77978;SDS011;67169;50.268;8.694;2023-08-31T14:55:39;0.20;;;0.20;;
77978;SDS011;67169;50.268;8.694;2023-08-31T14:58:05;0.20;;;0.20;;
77978;SDS011;67169;50.268;8.694;2023-08-31T15:00:33;3.50;;;0.50;;
77978;SDS011;67169;50.268;8.694;2023-08-31T15:03:00;0.43;;;0.30;;
77978;SDS011;67169;50.268;8.694;2023-08-31T15:05:29;0.57;;;0.40;;
77978;SDS011;67169;50.268;8.694;2023-08-31T15:07:56;0.40;;;0.28;;
77978;SDS011;67169;50.268;8.694;2023-08-31T15:10:23;0.95;;;0.68;;
77978;SDS011;67169;50.268;8.694;2023-08-31T15:12:49;0.60;;;0.30;;
77978;SDS011;67169;50.268;8.694;2023-08-31T15:15:19;1.40;;;0.40;;
77978;SDS011;67169;50.268;8.694;2023-08-31T15:17:46;1.20;;;0.20;;
77978;SDS011;67169;50.268;8.694;2023-08-31T15:20:12;0.20;;;0.20;;